createdAt,value
2023-01-26T00:01:10.496Z,58.05
2023-01-26T00:03:38.517Z,58.26
2023-01-26T00:06:06.515Z,58.06
2023-01-26T00:08:37.486Z,58.03
2023-01-26T00:11:06.011Z,58.11
2023-01-26T00:13:34.008Z,58.11
2023-01-26T00:16:02.468Z,58.15
2023-01-26T00:18:31.891Z,58.18
2023-01-26T00:20:59.950Z,58.18
2023-01-26T00:23:28.382Z,58.26
2023-01-26T00:25:56.321Z,58.07
2023-01-26T00:28:24.360Z,58.07
2023-01-26T00:30:52.351Z,57.89
2023-01-26T00:33:20.341Z,58.01
2023-01-26T00:35:56.525Z,58.21
2023-01-26T00:38:24.570Z,58.12
2023-01-26T00:40:52.520Z,58.22
2023-01-26T00:43:20.441Z,58.01
2023-01-26T00:45:48.359Z,58.05
2023-01-26T00:48:16.313Z,57.90
2023-01-26T00:50:44.242Z,58.06
2023-01-26T00:53:13.607Z,57.94
2023-01-26T00:55:41.532Z,57.92
2023-01-26T00:58:09.583Z,57.88
2023-01-26T01:00:38.459Z,57.94
2023-01-26T01:03:06.550Z,58.01
2023-01-26T01:05:34.622Z,58.09
2023-01-26T01:08:02.683Z,58.03
2023-01-26T01:10:32.037Z,58.16
2023-01-26T01:13:00.016Z,58.05
2023-01-26T01:15:27.978Z,57.92
2023-01-26T01:17:55.967Z,57.93
2023-01-26T01:20:23.917Z,57.88
2023-01-26T01:22:52.451Z,58.07
2023-01-26T01:25:20.464Z,58.03
2023-01-26T01:27:49.779Z,58.39
2023-01-26T01:30:17.691Z,58.62
2023-01-26T01:32:49.676Z,58.55
2023-01-26T01:35:17.727Z,58.47
2023-01-26T01:37:45.741Z,58.17
2023-01-26T01:40:14.321Z,58.40
2023-01-26T01:42:49.466Z,58.48
2023-01-26T01:45:40.670Z,58.42
2023-01-26T01:48:10.890Z,58.31
2023-01-26T01:50:39.717Z,58.23
2023-01-26T01:53:07.782Z,58.18
2023-01-26T01:55:35.726Z,58.03
2023-01-26T01:58:05.028Z,57.98
2023-01-26T02:00:33.009Z,58.10
2023-01-26T02:03:14.989Z,58.11
2023-01-26T02:05:47.516Z,58.14
2023-01-26T02:08:16.083Z,58.58
2023-01-26T02:10:44.291Z,58.62
2023-01-26T02:13:13.566Z,58.77
2023-01-26T02:15:41.495Z,58.94
2023-01-26T02:18:11.516Z,58.90
2023-01-26T02:20:44.176Z,59.01
2023-01-26T02:23:26.401Z,59.03
2023-01-26T02:26:05.742Z,59.01
2023-01-26T02:28:34.004Z,58.94
2023-01-26T02:31:02.096Z,59.15
2023-01-26T02:33:30.709Z,59.15
2023-01-26T02:35:58.627Z,59.27
2023-01-26T02:38:27.896Z,59.21
2023-01-26T02:40:56.843Z,59.15
2023-01-26T02:43:26.334Z,59.19
2023-01-26T02:45:54.365Z,59.13
2023-01-26T02:48:36.137Z,59.11
2023-01-26T02:51:04.091Z,59.21
2023-01-26T02:53:32.032Z,59.51
2023-01-26T02:55:59.017Z,59.51
2023-01-26T02:58:28.331Z,59.58
2023-01-26T03:00:56.302Z,59.67
2023-01-26T03:03:25.490Z,59.57
2023-01-26T03:05:53.513Z,59.70
2023-01-26T03:08:24.756Z,59.68
2023-01-26T03:10:52.679Z,59.69
2023-01-26T03:13:20.602Z,59.61
2023-01-26T03:15:54.729Z,59.58
2023-01-26T03:18:40.854Z,59.74
2023-01-26T03:21:29.384Z,59.66
2023-01-26T03:24:14.571Z,59.89
2023-01-26T03:27:00.231Z,59.88
2023-01-26T03:29:28.625Z,59.78
2023-01-26T03:31:59.307Z,59.82
2023-01-26T03:34:27.349Z,59.75
2023-01-26T03:36:55.517Z,59.92
2023-01-26T03:39:40.802Z,59.79
2023-01-26T03:42:26.242Z,59.67
2023-01-26T03:45:11.467Z,59.87
2023-01-26T03:47:58.426Z,59.68
2023-01-26T03:50:43.532Z,59.49
2023-01-26T03:53:32.988Z,59.57
2023-01-26T03:56:18.418Z,59.72
2023-01-26T03:58:46.589Z,59.58
2023-01-26T04:01:20.161Z,59.74
2023-01-26T04:04:08.151Z,59.77
2023-01-26T04:06:53.441Z,59.75
2023-01-26T04:09:21.517Z,59.65
2023-01-26T04:11:49.597Z,59.77
2023-01-26T04:14:38.193Z,59.78
2023-01-26T04:17:35.374Z,59.73
2023-01-26T04:20:22.869Z,59.78
2023-01-26T04:22:50.830Z,59.56
2023-01-26T04:25:20.205Z,59.59
2023-01-26T04:27:48.157Z,59.44
2023-01-26T04:30:17.022Z,59.56
2023-01-26T04:32:46.267Z,59.54
2023-01-26T04:35:15.737Z,59.36
2023-01-26T04:37:43.722Z,59.43
2023-01-26T04:40:12.983Z,59.31
2023-01-26T04:42:41.223Z,59.20
2023-01-26T04:45:11.314Z,59.17
2023-01-26T04:47:39.219Z,59.13
2023-01-26T04:50:07.779Z,59.03
2023-01-26T04:52:37.105Z,59.23
2023-01-26T04:55:05.537Z,58.99
2023-01-26T04:57:33.462Z,59.05
2023-01-26T05:00:01.409Z,59.11
2023-01-26T05:02:30.591Z,58.99
2023-01-26T05:04:58.639Z,58.86
2023-01-26T05:07:26.590Z,58.74
2023-01-26T05:09:55.883Z,58.71
2023-01-26T05:12:36.337Z,58.81
2023-01-26T05:15:04.474Z,58.85
2023-01-26T05:17:32.381Z,58.98
2023-01-26T05:20:00.288Z,58.85
2023-01-26T05:22:28.274Z,58.94
2023-01-26T05:24:57.593Z,58.91
2023-01-26T05:27:25.587Z,58.75
2023-01-26T05:29:53.531Z,59.04
2023-01-26T05:32:22.217Z,58.98
2023-01-26T05:34:50.146Z,58.96
2023-01-26T05:37:18.058Z,58.84
2023-01-26T05:39:45.979Z,58.83
2023-01-26T05:42:15.330Z,58.79
2023-01-26T05:44:43.279Z,58.61
2023-01-26T05:47:11.486Z,58.73
2023-01-26T05:49:42.812Z,58.78
2023-01-26T05:52:11.100Z,58.78
2023-01-26T05:54:38.995Z,58.77
2023-01-26T05:57:06.918Z,58.71
2023-01-26T05:59:36.213Z,58.79
2023-01-26T06:02:04.204Z,58.84
2023-01-26T06:04:32.306Z,58.71
2023-01-26T06:07:00.711Z,58.69
2023-01-26T06:09:28.655Z,58.63
2023-01-26T06:11:56.572Z,58.58
2023-01-26T06:14:24.584Z,58.58
2023-01-26T06:16:54.845Z,58.66
2023-01-26T06:19:22.912Z,58.52
2023-01-26T06:21:50.860Z,58.44
2023-01-26T06:24:18.833Z,58.40
2023-01-26T06:26:48.569Z,58.59
2023-01-26T06:29:16.594Z,58.38
2023-01-26T06:31:44.601Z,58.53
2023-01-26T06:34:14.003Z,58.35
2023-01-26T06:36:41.984Z,58.37
2023-01-26T06:39:10.590Z,58.44
2023-01-26T06:41:38.550Z,58.29
2023-01-26T06:44:06.767Z,58.32
2023-01-26T06:46:34.719Z,58.43
2023-01-26T06:49:03.272Z,58.42
2023-01-26T06:51:43.880Z,58.21
2023-01-26T06:54:11.974Z,58.22
2023-01-26T06:56:40.026Z,58.24
2023-01-26T06:59:09.882Z,58.14
2023-01-26T07:01:39.485Z,58.08
2023-01-26T07:04:07.472Z,58.31
2023-01-26T07:06:35.485Z,58.07
2023-01-26T07:09:04.980Z,58.14
2023-01-26T07:11:33.045Z,58.24
2023-01-26T07:14:01.039Z,58.30
2023-01-26T07:16:29.268Z,58.42
2023-01-26T07:18:57.608Z,58.41
2023-01-26T07:21:25.589Z,58.39
2023-01-26T07:23:54.207Z,58.20
2023-01-26T07:26:23.576Z,58.07
2023-01-26T07:28:51.555Z,58.20
2023-01-26T07:31:19.580Z,58.08
2023-01-26T07:33:47.594Z,58.21
2023-01-26T07:36:15.518Z,58.04
2023-01-26T07:38:43.439Z,58.10
2023-01-26T07:41:12.911Z,58.16
2023-01-26T07:43:42.627Z,58.16
2023-01-26T07:46:12.270Z,58.23
2023-01-26T07:48:40.863Z,58.29
2023-01-26T07:51:11.211Z,58.28
2023-01-26T07:53:41.192Z,58.10
2023-01-26T07:56:10.323Z,58.22
2023-01-26T07:58:38.253Z,58.18
2023-01-26T08:01:11.780Z,58.02
2023-01-26T08:03:39.771Z,58.27
2023-01-26T08:06:11.662Z,58.18
2023-01-26T08:08:41.147Z,58.09
2023-01-26T08:11:09.602Z,58.04
2023-01-26T08:13:37.694Z,58.13
2023-01-26T08:16:06.782Z,58.16
2023-01-26T08:18:36.134Z,58.20
2023-01-26T08:21:04.354Z,58.32
2023-01-26T08:23:32.320Z,58.41
2023-01-26T08:26:02.332Z,58.51
2023-01-26T08:28:30.364Z,58.47
2023-01-26T08:30:58.451Z,58.52
2023-01-26T08:33:26.506Z,58.28
2023-01-26T08:35:55.951Z,58.35
2023-01-26T08:38:23.950Z,58.37
2023-01-26T08:40:53.829Z,58.26
2023-01-26T08:43:21.783Z,58.49
2023-01-26T08:45:49.824Z,58.44
2023-01-26T08:48:18.345Z,58.40
2023-01-26T08:50:46.317Z,58.32
2023-01-26T08:53:15.679Z,58.42
2023-01-26T08:55:43.600Z,58.26
2023-01-26T08:58:11.519Z,58.47
2023-01-26T09:00:39.471Z,58.38
2023-01-26T09:03:07.493Z,58.53
2023-01-26T09:05:36.413Z,58.41
2023-01-26T09:08:04.488Z,58.58
2023-01-26T09:10:33.895Z,58.34
2023-01-26T09:13:02.152Z,58.08
2023-01-26T09:15:30.133Z,58.14
2023-01-26T09:18:00.678Z,58.23
2023-01-26T09:20:28.858Z,58.13
2023-01-26T09:22:57.183Z,58.12
2023-01-26T09:25:25.127Z,58.00
2023-01-26T09:27:54.546Z,57.87
2023-01-26T09:30:24.819Z,57.88
2023-01-26T09:32:52.825Z,57.81
2023-01-26T09:35:20.736Z,57.64
2023-01-26T09:37:48.669Z,57.60
2023-01-26T09:40:18.119Z,57.54
2023-01-26T09:43:01.749Z,57.46
2023-01-26T09:45:33.068Z,57.24
2023-01-26T09:48:09.265Z,57.24
2023-01-26T09:50:39.096Z,57.15
2023-01-26T09:53:08.692Z,57.18
2023-01-26T09:55:36.634Z,56.85
2023-01-26T09:58:05.121Z,57.00
2023-01-26T10:00:36.167Z,57.01
2023-01-26T10:03:11.058Z,57.18
2023-01-26T10:05:42.809Z,56.56
2023-01-26T10:08:12.397Z,56.74
2023-01-26T10:10:42.192Z,56.95
2023-01-26T10:13:11.029Z,56.75
2023-01-26T10:15:41.124Z,56.59
2023-01-26T10:18:10.100Z,56.25
2023-01-26T10:20:39.887Z,56.69
2023-01-26T10:23:08.759Z,56.36
2023-01-26T10:25:39.179Z,56.07
2023-01-26T10:28:13.477Z,56.12
2023-01-26T10:30:43.020Z,55.73
2023-01-26T10:33:16.518Z,55.54
2023-01-26T10:35:44.651Z,55.53
2023-01-26T10:38:29.186Z,55.37
2023-01-26T10:40:57.144Z,55.28
2023-01-26T10:43:25.033Z,55.38
2023-01-26T10:45:54.411Z,55.34
2023-01-26T10:48:24.209Z,55.28
2023-01-26T10:50:52.274Z,54.72
2023-01-26T10:53:23.825Z,54.64
2023-01-26T10:56:00.701Z,54.43
2023-01-26T10:58:49.278Z,55.06
2023-01-26T11:01:22.772Z,57.69
2023-01-26T11:04:05.982Z,60.19
2023-01-26T11:06:34.075Z,60.46
2023-01-26T11:09:12.705Z,59.62
2023-01-26T11:11:40.675Z,59.03
2023-01-26T11:14:12.480Z,57.75
2023-01-26T11:16:42.157Z,56.60
2023-01-26T11:19:13.609Z,54.29
2023-01-26T11:21:42.574Z,53.68
2023-01-26T11:24:12.433Z,54.12
2023-01-26T11:27:09.898Z,53.19
2023-01-26T11:29:47.869Z,50.52
2023-01-26T11:32:22.006Z,50.63
2023-01-26T11:34:54.843Z,48.69
2023-01-26T11:37:40.450Z,47.87
2023-01-26T11:40:27.966Z,48.24
2023-01-26T11:43:07.103Z,46.95
2023-01-26T11:45:38.037Z,47.00
2023-01-26T11:48:15.313Z,47.50
2023-01-26T11:50:46.449Z,46.30
2023-01-26T11:53:25.475Z,45.92
2023-01-26T11:55:59.850Z,45.23
2023-01-26T11:58:33.044Z,43.83
2023-01-26T12:01:01.925Z,43.12
2023-01-26T12:03:34.848Z,43.00
2023-01-26T12:06:04.020Z,42.73
2023-01-26T12:08:38.506Z,43.18
2023-01-26T12:11:21.360Z,42.75
2023-01-26T12:13:51.236Z,43.04
2023-01-26T12:16:20.010Z,42.63
2023-01-26T12:19:01.850Z,43.48
2023-01-26T12:21:38.533Z,44.01
2023-01-26T12:24:11.047Z,44.31
2023-01-26T12:26:48.387Z,43.44
2023-01-26T12:29:18.235Z,43.61
2023-01-26T12:31:49.050Z,43.52
2023-01-26T12:34:18.462Z,43.98
2023-01-26T12:36:49.450Z,43.86
2023-01-26T12:39:18.210Z,44.06
2023-01-26T12:41:59.892Z,44.00
2023-01-26T12:44:34.833Z,44.42
2023-01-26T12:47:06.897Z,44.55
2023-01-26T12:49:38.666Z,44.62
2023-01-26T12:52:08.696Z,44.56
2023-01-26T12:54:38.576Z,44.68
2023-01-26T12:57:07.714Z,44.96
2023-01-26T12:59:48.235Z,44.97
2023-01-26T13:02:27.471Z,45.17
2023-01-26T13:04:58.339Z,45.19
2023-01-26T13:07:34.390Z,45.34
2023-01-26T13:10:29.403Z,45.17
2023-01-26T13:12:59.394Z,45.19
2023-01-26T13:15:28.308Z,45.36
2023-01-26T13:17:57.796Z,45.47
2023-01-26T13:20:51.497Z,45.65
2023-01-26T13:23:52.810Z,45.83
2023-01-26T13:26:51.837Z,45.74
2023-01-26T13:29:35.435Z,45.60
2023-01-26T13:32:52.694Z,45.77
2023-01-26T13:35:22.757Z,46.10
2023-01-26T13:37:56.517Z,46.19
2023-01-26T13:40:25.988Z,46.22
2023-01-26T13:42:57.745Z,46.00
2023-01-26T13:45:30.534Z,45.73
2023-01-26T13:47:58.493Z,45.79
2023-01-26T13:50:32.240Z,45.63
2023-01-26T13:53:00.266Z,45.90
2023-01-26T13:55:29.289Z,46.10
2023-01-26T13:58:12.914Z,46.30
2023-01-26T14:00:40.892Z,46.18
2023-01-26T14:03:22.087Z,46.67
2023-01-26T14:05:55.491Z,46.48
2023-01-26T14:08:23.503Z,46.60
2023-01-26T14:10:51.496Z,46.96
2023-01-26T14:13:22.276Z,46.77
2023-01-26T14:15:57.476Z,46.81
2023-01-26T14:18:26.390Z,46.84
2023-01-26T14:21:01.076Z,46.92
2023-01-26T14:23:29.918Z,47.07
2023-01-26T14:25:58.950Z,47.00
2023-01-26T14:28:31.167Z,47.23
2023-01-26T14:31:01.302Z,47.41
2023-01-26T14:33:29.307Z,47.31
2023-01-26T14:35:58.136Z,47.28
2023-01-26T14:38:28.894Z,47.18
2023-01-26T14:40:57.439Z,47.14
2023-01-26T14:43:25.607Z,47.25
2023-01-26T14:45:55.272Z,47.08
2023-01-26T14:48:25.073Z,47.00
2023-01-26T14:50:52.995Z,47.00
2023-01-26T14:53:22.037Z,47.17
2023-01-26T14:55:51.648Z,47.33
2023-01-26T14:58:21.928Z,47.29
2023-01-26T15:00:50.247Z,47.29
2023-01-26T15:03:24.251Z,47.23
2023-01-26T15:06:08.339Z,47.00
2023-01-26T15:08:36.432Z,47.11
2023-01-26T15:11:23.400Z,46.97
2023-01-26T15:13:54.372Z,47.38
2023-01-26T15:16:23.055Z,47.21
2023-01-26T15:18:59.367Z,47.11
2023-01-26T15:21:32.856Z,47.03
2023-01-26T15:24:00.858Z,47.37
2023-01-26T15:26:31.044Z,47.33
2023-01-26T15:29:00.218Z,47.20
2023-01-26T15:31:30.751Z,47.39
2023-01-26T15:34:01.678Z,47.43
2023-01-26T15:36:35.284Z,47.60
2023-01-26T15:39:05.727Z,47.54
2023-01-26T15:41:35.122Z,47.52
2023-01-26T15:44:03.062Z,47.70
2023-01-26T15:46:31.137Z,47.54
2023-01-26T15:48:59.102Z,47.57
2023-01-26T15:51:27.089Z,47.79
2023-01-26T15:53:55.036Z,47.74
2023-01-26T15:56:22.977Z,48.05
2023-01-26T15:58:52.228Z,47.80
2023-01-26T16:01:22.556Z,47.96
2023-01-26T16:03:50.518Z,47.97
2023-01-26T16:06:23.837Z,48.03
2023-01-26T16:08:51.785Z,48.12
2023-01-26T16:11:19.878Z,48.21
2023-01-26T16:14:02.000Z,48.29
2023-01-26T16:16:32.774Z,48.28
2023-01-26T16:19:00.840Z,48.46
2023-01-26T16:21:31.529Z,48.48
2023-01-26T16:23:59.832Z,48.38
2023-01-26T16:26:28.098Z,48.36
2023-01-26T16:28:56.040Z,48.56
2023-01-26T16:31:25.368Z,48.59
2023-01-26T16:33:55.054Z,48.76
2023-01-26T16:36:23.064Z,48.67
2023-01-26T16:38:51.078Z,48.78
2023-01-26T16:41:22.497Z,48.77
2023-01-26T16:43:50.442Z,48.90
2023-01-26T16:46:18.408Z,48.82
2023-01-26T16:48:46.402Z,48.83
2023-01-26T16:51:20.921Z,48.90
2023-01-26T16:53:49.033Z,48.94
2023-01-26T16:56:17.386Z,48.90
2023-01-26T16:58:45.553Z,49.02
2023-01-26T17:01:22.436Z,48.90
2023-01-26T17:03:50.507Z,48.90
2023-01-26T17:06:20.365Z,48.98
2023-01-26T17:08:48.367Z,48.96
2023-01-26T17:11:17.644Z,48.89
2023-01-26T17:13:45.607Z,48.82
2023-01-26T17:16:15.354Z,48.80
2023-01-26T17:18:45.550Z,48.77
2023-01-26T17:21:13.784Z,48.72
2023-01-26T17:23:44.467Z,48.82
2023-01-26T17:26:13.179Z,48.67
2023-01-26T17:28:41.112Z,48.56
2023-01-26T17:31:10.791Z,48.78
2023-01-26T17:33:38.866Z,48.65
2023-01-26T17:36:07.909Z,48.55
2023-01-26T17:38:36.046Z,48.54
2023-01-26T17:41:05.906Z,48.63
2023-01-26T17:43:33.883Z,48.61
2023-01-26T17:46:06.340Z,48.62
2023-01-26T17:48:35.061Z,48.60
2023-01-26T17:51:05.591Z,48.67
2023-01-26T17:53:33.523Z,48.67
2023-01-26T17:56:01.552Z,48.84
2023-01-26T17:58:30.887Z,48.68
2023-01-26T18:00:58.887Z,48.80
2023-01-26T18:03:27.486Z,48.82
2023-01-26T18:05:55.420Z,48.69
2023-01-26T18:08:23.634Z,48.78
2023-01-26T18:10:51.714Z,48.80
2023-01-26T18:13:19.681Z,48.91
2023-01-26T18:15:49.148Z,49.06
2023-01-26T18:18:17.178Z,48.94
2023-01-26T18:20:45.236Z,48.97
2023-01-26T18:23:13.196Z,48.95
2023-01-26T18:25:41.185Z,48.95
2023-01-26T18:28:09.273Z,48.99
2023-01-26T18:30:37.276Z,49.12
2023-01-26T18:33:07.054Z,49.00
2023-01-26T18:35:35.363Z,48.96
2023-01-26T18:38:03.579Z,49.13
2023-01-26T18:40:31.936Z,49.16
2023-01-26T18:42:59.839Z,49.14
2023-01-26T18:45:27.837Z,49.11
2023-01-26T18:47:55.811Z,49.20
2023-01-26T18:50:25.137Z,49.26
2023-01-26T18:52:53.061Z,49.34
2023-01-26T18:55:21.037Z,49.39
2023-01-26T18:57:50.807Z,49.56
2023-01-26T19:00:19.853Z,49.37
2023-01-26T19:02:47.823Z,49.53
2023-01-26T19:05:15.871Z,49.40
2023-01-26T19:07:45.193Z,49.54
2023-01-26T19:10:13.161Z,49.66
2023-01-26T19:12:41.134Z,49.69
2023-01-26T19:15:10.923Z,49.75
2023-01-26T19:17:38.972Z,49.90
2023-01-26T19:20:08.159Z,49.85
2023-01-26T19:22:36.128Z,49.89
2023-01-26T19:25:06.080Z,49.91
2023-01-26T19:27:34.063Z,49.95
2023-01-26T19:30:02.156Z,50.22
2023-01-26T19:32:30.133Z,49.98
2023-01-26T19:34:58.065Z,50.22
2023-01-26T19:37:26.046Z,50.04
2023-01-26T19:39:54.015Z,50.09
2023-01-26T19:42:23.402Z,50.20
2023-01-26T19:44:51.364Z,50.01
2023-01-26T19:47:19.409Z,50.14
2023-01-26T19:49:47.357Z,50.17
2023-01-26T19:52:15.373Z,50.08
2023-01-26T19:54:43.344Z,50.23
2023-01-26T19:57:11.363Z,50.17
2023-01-26T19:59:40.719Z,50.33
2023-01-26T20:02:11.419Z,50.30
2023-01-26T20:04:39.652Z,50.18
2023-01-26T20:07:08.181Z,50.23
2023-01-26T20:09:36.266Z,50.19
2023-01-26T20:12:06.176Z,49.98
2023-01-26T20:14:34.325Z,50.21
2023-01-26T20:17:03.679Z,50.13
2023-01-26T20:19:34.900Z,50.13
2023-01-26T20:22:02.982Z,50.21
2023-01-26T20:24:31.006Z,50.17
2023-01-26T20:26:59.012Z,50.17
2023-01-26T20:29:27.142Z,50.18
2023-01-26T20:31:55.479Z,50.25
2023-01-26T20:34:24.931Z,50.14
2023-01-26T20:36:57.752Z,50.21
2023-01-26T20:39:25.916Z,50.21
2023-01-26T20:41:54.101Z,50.24
2023-01-26T20:44:22.069Z,50.29
2023-01-26T20:46:50.088Z,50.30
2023-01-26T20:49:21.135Z,50.31
2023-01-26T20:51:50.708Z,50.32
2023-01-26T20:54:18.865Z,50.33
2023-01-26T20:56:48.082Z,50.21
2023-01-26T20:59:16.102Z,50.33
2023-01-26T21:01:44.239Z,50.23
2023-01-26T21:04:13.089Z,50.19
2023-01-26T21:06:41.819Z,50.26
2023-01-26T21:09:12.886Z,50.21
2023-01-26T21:11:41.120Z,50.14
2023-01-26T21:14:11.445Z,50.11
2023-01-26T21:16:39.463Z,50.29
2023-01-26T21:19:07.592Z,50.40
2023-01-26T21:21:35.710Z,50.39
2023-01-26T21:24:03.869Z,50.32
2023-01-26T21:26:34.746Z,50.39
2023-01-26T21:29:02.755Z,50.39
2023-01-26T21:31:31.707Z,50.39
2023-01-26T21:34:00.125Z,50.36
2023-01-26T21:36:28.923Z,50.23
2023-01-26T21:38:57.613Z,50.44
2023-01-26T21:41:43.662Z,50.38
2023-01-26T21:44:14.002Z,50.32
2023-01-26T21:46:42.065Z,50.42
2023-01-26T21:49:10.893Z,50.45
2023-01-26T21:51:56.093Z,50.32
2023-01-26T21:54:24.009Z,50.39
2023-01-26T21:56:51.918Z,50.30
2023-01-26T21:59:20.263Z,50.33
2023-01-26T22:01:48.773Z,50.38
2023-01-26T22:04:17.807Z,50.28
2023-01-26T22:06:45.772Z,50.23
2023-01-26T22:09:15.204Z,50.35
2023-01-26T22:11:43.205Z,50.32
2023-01-26T22:14:14.698Z,50.29
2023-01-26T22:16:44.121Z,50.19
2023-01-26T22:19:12.372Z,50.31
2023-01-26T22:21:40.412Z,50.17
2023-01-26T22:24:11.664Z,50.07
2023-01-26T22:26:39.909Z,50.00
2023-01-26T22:29:07.990Z,50.16
2023-01-26T22:31:36.000Z,49.90
2023-01-26T22:34:05.446Z,50.00
2023-01-26T22:36:33.500Z,49.88
2023-01-26T22:39:01.524Z,49.83
2023-01-26T22:41:30.016Z,49.55
2023-01-26T22:43:58.423Z,49.46
2023-01-26T22:46:27.190Z,49.38
2023-01-26T22:48:57.159Z,49.36
2023-01-26T22:51:27.110Z,49.41
2023-01-26T22:53:55.223Z,49.26
2023-01-26T22:56:23.214Z,49.30
2023-01-26T22:58:57.983Z,49.23
2023-01-26T23:01:26.904Z,49.15
2023-01-26T23:03:55.725Z,49.18
2023-01-26T23:06:23.760Z,49.17
2023-01-26T23:08:53.097Z,49.46
2023-01-26T23:11:22.002Z,49.28
2023-01-26T23:13:50.877Z,49.28
2023-01-26T23:16:19.008Z,49.36
2023-01-26T23:18:47.013Z,49.32
2023-01-26T23:21:15.135Z,49.37
2023-01-26T23:23:43.106Z,49.43
2023-01-26T23:26:12.910Z,49.48
2023-01-26T23:28:41.691Z,49.52
2023-01-26T23:31:09.752Z,49.51
2023-01-26T23:33:37.827Z,49.42
2023-01-26T23:36:06.891Z,49.53
2023-01-26T23:38:34.837Z,49.68
2023-01-26T23:41:03.275Z,49.43
2023-01-26T23:43:32.831Z,49.53
2023-01-26T23:46:00.779Z,49.53
2023-01-26T23:48:28.747Z,49.61
2023-01-26T23:50:57.058Z,49.53
2023-01-26T23:53:25.014Z,49.59
2023-01-26T23:55:52.990Z,49.71
2023-01-26T23:58:20.935Z,49.58
